sensor_id;sensor_type;location;lat;lon;timestamp;pressure;altitude;pressure_sealevel;temperature
76901;BMP280;65859;43.020;25.096;2023-01-16T00:01:43;99211.09;;;1.89
76901;BMP280;65859;43.020;25.096;2023-01-16T00:04:10;99212.69;;;2.00
76901;BMP280;65859;43.020;25.096;2023-01-16T00:06:36;99209.81;;;2.07
76901;BMP280;65859;43.020;25.096;2023-01-16T00:09:06;99205.09;;;2.24
76901;BMP280;65859;43.020;25.096;2023-01-16T00:11:32;99202.25;;;2.26
76901;BMP280;65859;43.020;25.096;2023-01-16T00:13:59;99212.44;;;2.27
76901;BMP280;65859;43.020;25.096;2023-01-16T00:16:26;99215.56;;;2.04
76901;BMP280;65859;43.020;25.096;2023-01-16T00:18:54;99213.22;;;2.12
76901;BMP280;65859;43.020;25.096;2023-01-16T00:21:21;99205.91;;;2.14
76901;BMP280;65859;43.020;25.096;2023-01-16T00:23:53;99207.72;;;2.24
76901;BMP280;65859;43.020;25.096;2023-01-16T00:26:19;99211.38;;;2.03
76901;BMP280;65859;43.020;25.096;2023-01-16T00:28:46;99209.03;;;2.27
76901;BMP280;65859;43.020;25.096;2023-01-16T00:31:12;99210.59;;;2.43
76901;BMP280;65859;43.020;25.096;2023-01-16T00:33:38;99217.16;;;2.25
76901;BMP280;65859;43.020;25.096;2023-01-16T00:36:06;99197.41;;;1.51
76901;BMP280;65859;43.020;25.096;2023-01-16T00:38:33;99202.72;;;1.92
76901;BMP280;65859;43.020;25.096;2023-01-16T00:40:59;99204.03;;;2.10
76901;BMP280;65859;43.020;25.096;2023-01-16T00:43:25;99205.13;;;2.29
76901;BMP280;65859;43.020;25.096;2023-01-16T00:45:52;99198.28;;;2.13
76901;BMP280;65859;43.020;25.096;2023-01-16T00:48:18;99203.00;;;2.16
76901;BMP280;65859;43.020;25.096;2023-01-16T00:50:44;99189.44;;;2.29
76901;BMP280;65859;43.020;25.096;2023-01-16T00:53:11;99189.66;;;2.38
76901;BMP280;65859;43.020;25.096;2023-01-16T00:55:37;99177.34;;;2.43
76901;BMP280;65859;43.020;25.096;2023-01-16T00:58:04;99173.69;;;2.24
76901;BMP280;65859;43.020;25.096;2023-01-16T01:00:30;99171.59;;;2.36
76901;BMP280;65859;43.020;25.096;2023-01-16T01:02:57;99170.03;;;2.05
76901;BMP280;65859;43.020;25.096;2023-01-16T01:05:23;99165.34;;;2.07
76901;BMP280;65859;43.020;25.096;2023-01-16T01:07:51;99167.69;;;2.24
76901;BMP280;65859;43.020;25.096;2023-01-16T01:10:17;99164.03;;;2.19
76901;BMP280;65859;43.020;25.096;2023-01-16T01:12:43;99164.81;;;2.20
76901;BMP280;65859;43.020;25.096;2023-01-16T01:15:10;99160.34;;;2.41
76901;BMP280;65859;43.020;25.096;2023-01-16T01:17:37;99162.16;;;2.35
76901;BMP280;65859;43.020;25.096;2023-01-16T01:20:04;99158.00;;;2.14
76901;BMP280;65859;43.020;25.096;2023-01-16T01:22:30;99162.19;;;2.05
76901;BMP280;65859;43.020;25.096;2023-01-16T01:24:57;99164.81;;;2.30
76901;BMP280;65859;43.020;25.096;2023-01-16T01:27:23;99168.19;;;2.20
76901;BMP280;65859;43.020;25.096;2023-01-16T01:29:49;99164.03;;;2.19
76901;BMP280;65859;43.020;25.096;2023-01-16T01:32:16;99165.59;;;2.26
76901;BMP280;65859;43.020;25.096;2023-01-16T01:34:42;99163.22;;;1.93
76901;BMP280;65859;43.020;25.096;2023-01-16T01:37:09;99160.09;;;2.32
76901;BMP280;65859;43.020;25.096;2023-01-16T01:39:37;99150.41;;;1.92
76901;BMP280;65859;43.020;25.096;2023-01-16T01:42:03;99146.50;;;2.15
76901;BMP280;65859;43.020;25.096;2023-01-16T01:44:55;99153.56;;;2.14
76901;BMP280;65859;43.020;25.096;2023-01-16T01:47:44;99154.34;;;2.05
76901;BMP280;65859;43.020;25.096;2023-01-16T01:52:46;99148.06;;;2.01
76901;BMP280;65859;43.020;25.096;2023-01-16T01:55:13;99144.41;;;2.22
76901;BMP280;65859;43.020;25.096;2023-01-16T01:57:45;99137.81;;;2.45
76901;BMP280;65859;43.020;25.096;2023-01-16T02:00:20;99134.47;;;2.19
76901;BMP280;65859;43.020;25.096;2023-01-16T02:02:55;99128.69;;;2.02
76901;BMP280;65859;43.020;25.096;2023-01-16T02:05:31;99134.97;;;1.95
76901;BMP280;65859;43.020;25.096;2023-01-16T02:07:58;99123.56;;;1.03
76901;BMP280;65859;43.020;25.096;2023-01-16T02:10:47;99137.03;;;1.58
76901;BMP280;65859;43.020;25.096;2023-01-16T02:13:15;99139.19;;;1.81
76901;BMP280;65859;43.020;25.096;2023-01-16T02:15:41;99132.34;;;1.75
76901;BMP280;65859;43.020;25.096;2023-01-16T02:18:28;99136.75;;;1.44
76901;BMP280;65859;43.020;25.096;2023-01-16T02:40:35;99135.50;;;2.03
76901;BMP280;65859;43.020;25.096;2023-01-16T02:45:48;99130.75;;;1.33
76901;BMP280;65859;43.020;25.096;2023-01-16T02:48:28;99135.88;;;1.13
76901;BMP280;65859;43.020;25.096;2023-01-16T02:51:37;99120.84;;;0.83
76901;BMP280;65859;43.020;25.096;2023-01-16T02:54:23;99121.06;;;1.34
76901;BMP280;65859;43.020;25.096;2023-01-16T02:57:01;99129.66;;;1.39
76901;BMP280;65859;43.020;25.096;2023-01-16T02:59:30;99115.56;;;1.40
76901;BMP280;65859;43.020;25.096;2023-01-16T03:01:57;99115.91;;;0.81
76901;BMP280;65859;43.020;25.096;2023-01-16T03:04:48;99112.41;;;0.65
76901;BMP280;65859;43.020;25.096;2023-01-16T03:26:49;99094.19;;;0.70
76901;BMP280;65859;43.020;25.096;2023-01-16T03:35:14;99079.47;;;0.54
76901;BMP280;65859;43.020;25.096;2023-01-16T03:37:48;99080.19;;;0.44
76901;BMP280;65859;43.020;25.096;2023-01-16T03:40:22;99074.50;;;0.53
76901;BMP280;65859;43.020;25.096;2023-01-16T03:43:09;99074.00;;;0.56
76901;BMP280;65859;43.020;25.096;2023-01-16T03:45:45;99067.72;;;0.57
76901;BMP280;65859;43.020;25.096;2023-01-16T03:48:22;99064.84;;;0.48
76901;BMP280;65859;43.020;25.096;2023-01-16T03:50:55;99069.34;;;0.68
76901;BMP280;65859;43.020;25.096;2023-01-16T03:53:29;99071.41;;;0.66
76901;BMP280;65859;43.020;25.096;2023-01-16T03:58:33;99054.53;;;0.79
76901;BMP280;65859;43.020;25.096;2023-01-16T04:01:21;99056.97;;;1.01
76901;BMP280;65859;43.020;25.096;2023-01-16T04:08:55;99046.00;;;1.04
76901;BMP280;65859;43.020;25.096;2023-01-16T04:11:25;99043.63;;;1.02
76901;BMP280;65859;43.020;25.096;2023-01-16T04:13:54;99040.00;;;1.03
76901;BMP280;65859;43.020;25.096;2023-01-16T04:16:23;99034.53;;;1.15
76901;BMP280;65859;43.020;25.096;2023-01-16T04:18:50;99031.66;;;1.16
76901;BMP280;65859;43.020;25.096;2023-01-16T04:21:19;99036.91;;;0.54
76901;BMP280;65859;43.020;25.096;2023-01-16T04:23:53;99024.16;;;0.62
76901;BMP280;65859;43.020;25.096;2023-01-16T04:26:20;99030.78;;;0.85
76901;BMP280;65859;43.020;25.096;2023-01-16T04:28:46;99030.25;;;0.20
76901;BMP280;65859;43.020;25.096;2023-01-16T04:31:12;99017.38;;;0.56
76901;BMP280;65859;43.020;25.096;2023-01-16T04:33:39;99024.59;;;0.39
76901;BMP280;65859;43.020;25.096;2023-01-16T04:36:05;99019.53;;;0.80
76901;BMP280;65859;43.020;25.096;2023-01-16T04:38:32;99012.53;;;0.95
76901;BMP280;65859;43.020;25.096;2023-01-16T04:40:58;99016.09;;;0.64
76901;BMP280;65859;43.020;25.096;2023-01-16T04:43:24;99009.44;;;1.09
76901;BMP280;65859;43.020;25.096;2023-01-16T04:45:51;99007.34;;;1.06
76901;BMP280;65859;43.020;25.096;2023-01-16T04:48:18;99004.88;;;0.68
76901;BMP280;65859;43.020;25.096;2023-01-16T04:50:48;99012.25;;;0.87
76901;BMP280;65859;43.020;25.096;2023-01-16T04:53:15;99003.69;;;1.17
76901;BMP280;65859;43.020;25.096;2023-01-16T04:55:42;98994.84;;;1.23
76901;BMP280;65859;43.020;25.096;2023-01-16T04:58:08;98995.03;;;0.91
76901;BMP280;65859;43.020;25.096;2023-01-16T05:00:34;98987.38;;;0.69
76901;BMP280;65859;43.020;25.096;2023-01-16T05:03:01;98983.72;;;0.70
76901;BMP280;65859;43.020;25.096;2023-01-16T05:05:27;98981.75;;;1.13
76901;BMP280;65859;43.020;25.096;2023-01-16T05:07:53;98981.78;;;1.18
76901;BMP280;65859;43.020;25.096;2023-01-16T05:10:38;98985.41;;;1.02
76901;BMP280;65859;43.020;25.096;2023-01-16T05:13:04;98984.59;;;1.01
76901;BMP280;65859;43.020;25.096;2023-01-16T05:15:31;98991.66;;;1.06
76901;BMP280;65859;43.020;25.096;2023-01-16T05:17:57;98989.84;;;1.16
76901;BMP280;65859;43.020;25.096;2023-01-16T05:20:25;98991.66;;;1.06
76901;BMP280;65859;43.020;25.096;2023-01-16T05:22:51;98986.19;;;1.07
76901;BMP280;65859;43.020;25.096;2023-01-16T05:25:18;98986.97;;;1.13
76901;BMP280;65859;43.020;25.096;2023-01-16T05:27:49;98978.88;;;1.04
76901;BMP280;65859;43.020;25.096;2023-01-16T05:30:16;98983.28;;;0.93
76901;BMP280;65859;43.020;25.096;2023-01-16T05:32:45;98990.31;;;0.83
76901;BMP280;65859;43.020;25.096;2023-01-16T05:35:12;98990.63;;;1.07
76901;BMP280;65859;43.020;25.096;2023-01-16T05:37:38;98985.97;;;1.29
76901;BMP280;65859;43.020;25.096;2023-01-16T05:40:05;98988.56;;;1.24
76901;BMP280;65859;43.020;25.096;2023-01-16T05:42:32;98991.44;;;1.07
76901;BMP280;65859;43.020;25.096;2023-01-16T05:44:58;98975.53;;;1.29
76901;BMP280;65859;43.020;25.096;2023-01-16T05:47:24;98966.88;;;1.24
76901;BMP280;65859;43.020;25.096;2023-01-16T05:49:51;98983.59;;;1.17
76901;BMP280;65859;43.020;25.096;2023-01-16T05:52:18;98975.06;;;0.54
76901;BMP280;65859;43.020;25.096;2023-01-16T05:54:45;98971.25;;;0.14
76901;BMP280;65859;43.020;25.096;2023-01-16T05:57:11;98966.13;;;0.35
76901;BMP280;65859;43.020;25.096;2023-01-16T05:59:38;98970.63;;;0.55
76901;BMP280;65859;43.020;25.096;2023-01-16T06:02:07;98965.47;;;0.70
76901;BMP280;65859;43.020;25.096;2023-01-16T06:04:33;98967.31;;;0.75
76901;BMP280;65859;43.020;25.096;2023-01-16T06:07:00;98966.13;;;0.40
76901;BMP280;65859;43.020;25.096;2023-01-16T06:09:26;98964.44;;;0.03
76901;BMP280;65859;43.020;25.096;2023-01-16T06:11:53;98961.44;;;0.32
76901;BMP280;65859;43.020;25.096;2023-01-16T06:14:19;98954.19;;;-0.14
76901;BMP280;65859;43.020;25.096;2023-01-16T06:16:46;98960.88;;;-0.23
76901;BMP280;65859;43.020;25.096;2023-01-16T06:19:12;98959.06;;;-0.22
76901;BMP280;65859;43.020;25.096;2023-01-16T06:21:39;98945.31;;;-0.13
76901;BMP280;65859;43.020;25.096;2023-01-16T06:24:07;98952.53;;;-0.25
76901;BMP280;65859;43.020;25.096;2023-01-16T06:26:33;98954.44;;;0.47
76901;BMP280;65859;43.020;25.096;2023-01-16T06:29:00;98944.34;;;0.77
76901;BMP280;65859;43.020;25.096;2023-01-16T06:31:26;98941.47;;;0.73
76901;BMP280;65859;43.020;25.096;2023-01-16T06:33:53;98947.97;;;0.60
76901;BMP280;65859;43.020;25.096;2023-01-16T06:36:19;98951.31;;;0.45
76901;BMP280;65859;43.020;25.096;2023-01-16T06:38:46;98960.13;;;0.34
76901;BMP280;65859;43.020;25.096;2023-01-16T06:41:12;98957.22;;;0.26
76901;BMP280;65859;43.020;25.096;2023-01-16T06:43:38;98952.34;;;-0.13
76901;BMP280;65859;43.020;25.096;2023-01-16T06:46:05;98951.06;;;-0.11
76901;BMP280;65859;43.020;25.096;2023-01-16T06:48:31;98936.91;;;0.22
76901;BMP280;65859;43.020;25.096;2023-01-16T06:50:58;98943.94;;;-0.26
76901;BMP280;65859;43.020;25.096;2023-01-16T06:53:25;98937.41;;;-0.28
76901;BMP280;65859;43.020;25.096;2023-01-16T06:55:53;98944.59;;;-0.03
76901;BMP280;65859;43.020;25.096;2023-01-16T06:58:19;98944.47;;;0.34
76901;BMP280;65859;43.020;25.096;2023-01-16T07:00:47;98929.59;;;-0.23
76901;BMP280;65859;43.020;25.096;2023-01-16T07:03:17;98931.69;;;-0.25
76901;BMP280;65859;43.020;25.096;2023-01-16T07:05:45;98918.50;;;-0.45
76901;BMP280;65859;43.020;25.096;2023-01-16T07:08:12;98921.66;;;-0.43
76901;BMP280;65859;43.020;25.096;2023-01-16T07:10:38;98915.69;;;-0.34
76901;BMP280;65859;43.020;25.096;2023-01-16T07:13:05;98910.72;;;0.02
76901;BMP280;65859;43.020;25.096;2023-01-16T07:15:31;98888.72;;;0.56
76901;BMP280;65859;43.020;25.096;2023-01-16T07:18:17;98882.44;;;0.62
76901;BMP280;65859;43.020;25.096;2023-01-16T07:21:04;98878.59;;;1.00
76901;BMP280;65859;43.020;25.096;2023-01-16T07:24:02;98868.63;;;0.71
76901;BMP280;65859;43.020;25.096;2023-01-16T07:26:32;98854.03;;;0.96
76901;BMP280;65859;43.020;25.096;2023-01-16T07:29:00;98854.81;;;1.07
76901;BMP280;65859;43.020;25.096;2023-01-16T07:31:29;98857.38;;;1.37
76901;BMP280;65859;43.020;25.096;2023-01-16T07:33:58;98851.66;;;0.69
76901;BMP280;65859;43.020;25.096;2023-01-16T07:36:24;98842.22;;;0.27
76901;BMP280;65859;43.020;25.096;2023-01-16T07:38:51;98831.81;;;0.88
76901;BMP280;65859;43.020;25.096;2023-01-16T07:41:18;98820.88;;;0.76
76901;BMP280;65859;43.020;25.096;2023-01-16T07:43:44;98824.53;;;1.11
76901;BMP280;65859;43.020;25.096;2023-01-16T07:46:12;98831.19;;;1.58
76901;BMP280;65859;43.020;25.096;2023-01-16T07:48:39;98834.38;;;1.44
76901;BMP280;65859;43.020;25.096;2023-01-16T07:51:05;98830.94;;;1.54
76901;BMP280;65859;43.020;25.096;2023-01-16T07:53:32;98832.19;;;1.72
76901;BMP280;65859;43.020;25.096;2023-01-16T07:56:01;98837.66;;;1.76
76901;BMP280;65859;43.020;25.096;2023-01-16T07:58:30;98832.00;;;2.13
76901;BMP280;65859;43.020;25.096;2023-01-16T08:00:57;98822.06;;;2.15
76901;BMP280;65859;43.020;25.096;2023-01-16T08:03:24;98817.69;;;2.00
76901;BMP280;65859;43.020;25.096;2023-01-16T08:05:55;98830.69;;;2.50
76901;BMP280;65859;43.020;25.096;2023-01-16T08:08:22;98831.72;;;2.59
76901;BMP280;65859;43.020;25.096;2023-01-16T08:10:56;98826.63;;;2.33
76901;BMP280;65859;43.020;25.096;2023-01-16T08:13:23;98832.47;;;2.20
76901;BMP280;65859;43.020;25.096;2023-01-16T08:15:50;98843.06;;;2.00
76901;BMP280;65859;43.020;25.096;2023-01-16T08:18:20;98841.72;;;2.46
76901;BMP280;65859;43.020;25.096;2023-01-16T08:20:47;98840.97;;;2.80
76901;BMP280;65859;43.020;25.096;2023-01-16T08:23:13;98831.28;;;2.76
76901;BMP280;65859;43.020;25.096;2023-01-16T08:25:40;98828.94;;;3.03
76901;BMP280;65859;43.020;25.096;2023-01-16T08:28:06;98833.53;;;2.58
76901;BMP280;65859;43.020;25.096;2023-01-16T08:30:34;98828.41;;;2.43
76901;BMP280;65859;43.020;25.096;2023-01-16T08:33:01;98829.75;;;2.35
76901;BMP280;65859;43.020;25.096;2023-01-16T08:35:28;98820.88;;;2.31
76901;BMP280;65859;43.020;25.096;2023-01-16T08:37:54;98816.53;;;2.16
76901;BMP280;65859;43.020;25.096;2023-01-16T08:40:21;98819.03;;;1.92
76901;BMP280;65859;43.020;25.096;2023-01-16T08:42:47;98828.59;;;1.42
76901;BMP280;65859;43.020;25.096;2023-01-16T08:45:32;98837.81;;;1.25
76901;BMP280;65859;43.020;25.096;2023-01-16T08:48:23;98830.81;;;2.34
76901;BMP280;65859;43.020;25.096;2023-01-16T08:51:15;98830.63;;;2.20
76901;BMP280;65859;43.020;25.096;2023-01-16T08:53:48;98821.88;;;2.35
76901;BMP280;65859;43.020;25.096;2023-01-16T08:56:15;98814.00;;;2.01
76901;BMP280;65859;43.020;25.096;2023-01-16T08:58:41;98816.03;;;3.12
76901;BMP280;65859;43.020;25.096;2023-01-16T09:01:09;98802.16;;;3.35
76901;BMP280;65859;43.020;25.096;2023-01-16T09:03:35;98797.81;;;2.96
76901;BMP280;65859;43.020;25.096;2023-01-16T09:06:02;98801.97;;;3.27
76901;BMP280;65859;43.020;25.096;2023-01-16T09:08:28;98798.59;;;2.73
76901;BMP280;65859;43.020;25.096;2023-01-16T09:10:55;98789.56;;;3.56
76901;BMP280;65859;43.020;25.096;2023-01-16T09:13:39;98798.59;;;3.88
76901;BMP280;65859;43.020;25.096;2023-01-16T09:16:24;98779.28;;;4.35
76901;BMP280;65859;43.020;25.096;2023-01-16T09:18:51;98776.75;;;3.92
76901;BMP280;65859;43.020;25.096;2023-01-16T09:21:18;98770.88;;;3.82
76901;BMP280;65859;43.020;25.096;2023-01-16T09:23:45;98772.84;;;3.90
76901;BMP280;65859;43.020;25.096;2023-01-16T09:26:12;98776.19;;;4.61
76901;BMP280;65859;43.020;25.096;2023-01-16T09:28:39;98768.72;;;4.54
76901;BMP280;65859;43.020;25.096;2023-01-16T09:31:05;98772.28;;;3.31
76901;BMP280;65859;43.020;25.096;2023-01-16T09:33:33;98761.78;;;5.41
76901;BMP280;65859;43.020;25.096;2023-01-16T09:35:59;98751.13;;;5.23
76901;BMP280;65859;43.020;25.096;2023-01-16T09:38:26;98765.28;;;5.86
76901;BMP280;65859;43.020;25.096;2023-01-16T09:40:56;98759.84;;;6.59
76901;BMP280;65859;43.020;25.096;2023-01-16T09:46:19;98755.81;;;7.27
76901;BMP280;65859;43.020;25.096;2023-01-16T09:49:01;98752.13;;;7.45
76901;BMP280;65859;43.020;25.096;2023-01-16T09:51:40;98743.91;;;7.47
76901;BMP280;65859;43.020;25.096;2023-01-16T09:54:12;98737.16;;;8.48
76901;BMP280;65859;43.020;25.096;2023-01-16T09:57:02;98725.53;;;7.24
76901;BMP280;65859;43.020;25.096;2023-01-16T09:59:50;98725.56;;;6.19
76901;BMP280;65859;43.020;25.096;2023-01-16T10:04:49;98717.47;;;7.64
76901;BMP280;65859;43.020;25.096;2023-01-16T10:13:06;98691.69;;;7.78
76901;BMP280;65859;43.020;25.096;2023-01-16T10:31:42;98681.50;;;7.34
76901;BMP280;65859;43.020;25.096;2023-01-16T10:34:26;98673.44;;;7.47
76901;BMP280;65859;43.020;25.096;2023-01-16T10:36:57;98676.50;;;7.49
76901;BMP280;65859;43.020;25.096;2023-01-16T10:39:30;98668.72;;;7.70
76901;BMP280;65859;43.020;25.096;2023-01-16T10:41:59;98658.66;;;8.70
76901;BMP280;65859;43.020;25.096;2023-01-16T10:47:50;98645.47;;;7.93
76901;BMP280;65859;43.020;25.096;2023-01-16T10:50:36;98649.25;;;7.92
76901;BMP280;65859;43.020;25.096;2023-01-16T10:53:04;98641.34;;;8.51
76901;BMP280;65859;43.020;25.096;2023-01-16T10:55:32;98636.63;;;8.57
76901;BMP280;65859;43.020;25.096;2023-01-16T10:58:14;98636.44;;;8.11
76901;BMP280;65859;43.020;25.096;2023-01-16T11:00:43;98637.25;;;8.03
76901;BMP280;65859;43.020;25.096;2023-01-16T11:03:18;98626.91;;;8.19
76901;BMP280;65859;43.020;25.096;2023-01-16T11:05:45;98619.09;;;8.31
76901;BMP280;65859;43.020;25.096;2023-01-16T11:08:18;98611.94;;;8.02
76901;BMP280;65859;43.020;25.096;2023-01-16T11:10:47;98608.50;;;7.93
76901;BMP280;65859;43.020;25.096;2023-01-16T11:13:25;98606.91;;;8.09
76901;BMP280;65859;43.020;25.096;2023-01-16T11:16:21;98601.09;;;7.87
76901;BMP280;65859;43.020;25.096;2023-01-16T11:19:42;98598.56;;;7.52
76901;BMP280;65859;43.020;25.096;2023-01-16T11:22:23;98597.19;;;7.54
76901;BMP280;65859;43.020;25.096;2023-01-16T11:24:56;98593.63;;;7.42
76901;BMP280;65859;43.020;25.096;2023-01-16T11:27:26;98592.56;;;7.34
76901;BMP280;65859;43.020;25.096;2023-01-16T11:29:54;98586.34;;;7.13
76901;BMP280;65859;43.020;25.096;2023-01-16T11:32:23;98580.31;;;6.95
76901;BMP280;65859;43.020;25.096;2023-01-16T11:34:55;98567.00;;;6.83
76901;BMP280;65859;43.020;25.096;2023-01-16T11:37:23;98564.03;;;6.75
76901;BMP280;65859;43.020;25.096;2023-01-16T11:39:54;98560.78;;;6.78
76901;BMP280;65859;43.020;25.096;2023-01-16T11:42:21;98551.16;;;6.83
76901;BMP280;65859;43.020;25.096;2023-01-16T11:45:24;98550.69;;;6.89
76901;BMP280;65859;43.020;25.096;2023-01-16T11:48:10;98544.97;;;6.96
76901;BMP280;65859;43.020;25.096;2023-01-16T11:50:56;98542.47;;;7.08
76901;BMP280;65859;43.020;25.096;2023-01-16T11:53:29;98540.44;;;7.14
76901;BMP280;65859;43.020;25.096;2023-01-16T12:01:48;98545.13;;;7.64
76901;BMP280;65859;43.020;25.096;2023-01-16T12:04:37;98543.97;;;7.44
76901;BMP280;65859;43.020;25.096;2023-01-16T12:07:21;98532.31;;;7.36
76901;BMP280;65859;43.020;25.096;2023-01-16T12:13:07;98522.63;;;7.49
76901;BMP280;65859;43.020;25.096;2023-01-16T12:18:58;98516.94;;;7.47
76901;BMP280;65859;43.020;25.096;2023-01-16T12:21:29;98501.44;;;7.37
76901;BMP280;65859;43.020;25.096;2023-01-16T12:27:17;98502.00;;;6.95
76901;BMP280;65859;43.020;25.096;2023-01-16T12:43:18;98482.34;;;7.40
76901;BMP280;65859;43.020;25.096;2023-01-16T12:45:51;98487.25;;;7.50
76901;BMP280;65859;43.020;25.096;2023-01-16T12:59:25;98477.78;;;8.29
76901;BMP280;65859;43.020;25.096;2023-01-16T13:02:00;98469.47;;;8.18
76901;BMP280;65859;43.020;25.096;2023-01-16T13:04:37;98457.56;;;8.12
76901;BMP280;65859;43.020;25.096;2023-01-16T13:07:06;98457.72;;;8.07
76901;BMP280;65859;43.020;25.096;2023-01-16T13:12:49;98445.13;;;7.92
76901;BMP280;65859;43.020;25.096;2023-01-16T13:15:36;98445.19;;;8.04
76901;BMP280;65859;43.020;25.096;2023-01-16T13:20:49;98422.44;;;8.11
76901;BMP280;65859;43.020;25.096;2023-01-16T13:26:01;98413.44;;;7.92
76901;BMP280;65859;43.020;25.096;2023-01-16T13:33:48;98409.94;;;7.49
76901;BMP280;65859;43.020;25.096;2023-01-16T13:41:58;98414.19;;;7.42
76901;BMP280;65859;43.020;25.096;2023-01-16T13:44:38;98419.16;;;7.43
76901;BMP280;65859;43.020;25.096;2023-01-16T13:47:28;98399.84;;;7.22
76901;BMP280;65859;43.020;25.096;2023-01-16T13:50:07;98407.88;;;7.25
76901;BMP280;65859;43.020;25.096;2023-01-16T13:52:42;98401.66;;;7.30
76901;BMP280;65859;43.020;25.096;2023-01-16T13:55:41;98397.00;;;7.27
76901;BMP280;65859;43.020;25.096;2023-01-16T13:58:16;98400.78;;;7.17
76901;BMP280;65859;43.020;25.096;2023-01-16T14:00:44;98398.50;;;7.07
76901;BMP280;65859;43.020;25.096;2023-01-16T14:05:51;98385.34;;;6.98
76901;BMP280;65859;43.020;25.096;2023-01-16T14:11:33;98389.09;;;6.97
76901;BMP280;65859;43.020;25.096;2023-01-16T14:17:08;98378.81;;;7.04
76901;BMP280;65859;43.020;25.096;2023-01-16T14:19:58;98369.97;;;7.00
76901;BMP280;65859;43.020;25.096;2023-01-16T14:22:40;98382.53;;;7.03
76901;BMP280;65859;43.020;25.096;2023-01-16T14:25:28;98395.91;;;6.98
76901;BMP280;65859;43.020;25.096;2023-01-16T14:27:55;98384.28;;;6.99
76901;BMP280;65859;43.020;25.096;2023-01-16T14:30:30;98392.50;;;6.89
76901;BMP280;65859;43.020;25.096;2023-01-16T14:32:59;98384.63;;;6.80
76901;BMP280;65859;43.020;25.096;2023-01-16T14:35:45;98372.09;;;6.77
76901;BMP280;65859;43.020;25.096;2023-01-16T14:38:21;98376.69;;;6.80
76901;BMP280;65859;43.020;25.096;2023-01-16T14:40:58;98372.56;;;6.71
76901;BMP280;65859;43.020;25.096;2023-01-16T14:47:31;98352.88;;;6.68
76901;BMP280;65859;43.020;25.096;2023-01-16T14:50:16;98348.53;;;6.72
76901;BMP280;65859;43.020;25.096;2023-01-16T14:53:17;98326.47;;;6.86
76901;BMP280;65859;43.020;25.096;2023-01-16T14:56:07;98329.53;;;6.88
76901;BMP280;65859;43.020;25.096;2023-01-16T14:58:41;98326.47;;;6.86
76901;BMP280;65859;43.020;25.096;2023-01-16T15:01:29;98313.00;;;6.78
76901;BMP280;65859;43.020;25.096;2023-01-16T15:04:18;98298.44;;;6.72
76901;BMP280;65859;43.020;25.096;2023-01-16T15:06:59;98294.94;;;6.60
76901;BMP280;65859;43.020;25.096;2023-01-16T15:09:29;98306.28;;;6.51
76901;BMP280;65859;43.020;25.096;2023-01-16T15:12:15;98310.94;;;6.46
76901;BMP280;65859;43.020;25.096;2023-01-16T15:14:57;98298.38;;;6.43
76901;BMP280;65859;43.020;25.096;2023-01-16T15:17:37;98287.53;;;6.36
76901;BMP280;65859;43.020;25.096;2023-01-16T15:20:25;98299.53;;;6.33
76901;BMP280;65859;43.020;25.096;2023-01-16T15:23:35;98309.56;;;6.31
76901;BMP280;65859;43.020;25.096;2023-01-16T15:33:39;98309.25;;;6.24
76901;BMP280;65859;43.020;25.096;2023-01-16T15:36:24;98311.44;;;6.22
76901;BMP280;65859;43.020;25.096;2023-01-16T15:38:55;98316.41;;;6.15
76901;BMP280;65859;43.020;25.096;2023-01-16T15:41:32;98326.63;;;6.08
76901;BMP280;65859;43.020;25.096;2023-01-16T15:44:20;98311.47;;;6.05
76901;BMP280;65859;43.020;25.096;2023-01-16T15:47:36;98315.97;;;6.04
76901;BMP280;65859;43.020;25.096;2023-01-16T15:50:11;98319.06;;;6.06
76901;BMP280;65859;43.020;25.096;2023-01-16T15:52:40;98310.84;;;6.08
76901;BMP280;65859;43.020;25.096;2023-01-16T15:55:19;98304.97;;;6.02
76901;BMP280;65859;43.020;25.096;2023-01-16T15:58:01;98293.97;;;6.00
76901;BMP280;65859;43.020;25.096;2023-01-16T16:00:36;98291.47;;;5.95
76901;BMP280;65859;43.020;25.096;2023-01-16T16:03:15;98297.69;;;6.08
76901;BMP280;65859;43.020;25.096;2023-01-16T16:05:47;98287.59;;;6.10
76901;BMP280;65859;43.020;25.096;2023-01-16T16:08:20;98280.78;;;6.09
76901;BMP280;65859;43.020;25.096;2023-01-16T16:10:48;98287.16;;;5.99
76901;BMP280;65859;43.020;25.096;2023-01-16T16:13:34;98304.81;;;5.98
76901;BMP280;65859;43.020;25.096;2023-01-16T16:16:03;98289.00;;;5.81
76901;BMP280;65859;43.020;25.096;2023-01-16T16:18:59;98301.56;;;5.67
76901;BMP280;65859;43.020;25.096;2023-01-16T16:21:29;98287.47;;;5.54
76901;BMP280;65859;43.020;25.096;2023-01-16T16:24:03;98281.09;;;5.46
76901;BMP280;65859;43.020;25.096;2023-01-16T16:26:32;98280.50;;;5.58
76901;BMP280;65859;43.020;25.096;2023-01-16T16:29:04;98290.25;;;5.66
76901;BMP280;65859;43.020;25.096;2023-01-16T16:31:33;98288.84;;;5.69
76901;BMP280;65859;43.020;25.096;2023-01-16T16:34:04;98288.88;;;5.60
76901;BMP280;65859;43.020;25.096;2023-01-16T16:36:40;98283.13;;;5.58
76901;BMP280;65859;43.020;25.096;2023-01-16T16:41:53;98293.34;;;5.68
76901;BMP280;65859;43.020;25.096;2023-01-16T16:44:40;98287.31;;;5.59
76901;BMP280;65859;43.020;25.096;2023-01-16T16:47:24;98271.66;;;5.63
76901;BMP280;65859;43.020;25.096;2023-01-16T16:49:52;98267.03;;;5.51
76901;BMP280;65859;43.020;25.096;2023-01-16T16:52:43;98257.88;;;5.40
76901;BMP280;65859;43.020;25.096;2023-01-16T16:55:27;98248.63;;;5.42
76901;BMP280;65859;43.020;25.096;2023-01-16T16:57:58;98252.16;;;5.46
76901;BMP280;65859;43.020;25.096;2023-01-16T17:00:25;98248.63;;;5.42
76901;BMP280;65859;43.020;25.096;2023-01-16T17:02:57;98251.25;;;5.34
76901;BMP280;65859;43.020;25.096;2023-01-16T17:05:23;98257.53;;;5.15
76901;BMP280;65859;43.020;25.096;2023-01-16T17:07:50;98268.00;;;4.98
76901;BMP280;65859;43.020;25.096;2023-01-16T17:10:18;98263.53;;;4.98
76901;BMP280;65859;43.020;25.096;2023-01-16T17:12:44;98259.34;;;4.97
76901;BMP280;65859;43.020;25.096;2023-01-16T17:15:10;98248.09;;;5.06
76901;BMP280;65859;43.020;25.096;2023-01-16T17:17:43;98239.28;;;5.10
76901;BMP280;65859;43.020;25.096;2023-01-16T17:20:20;98223.22;;;5.12
76901;BMP280;65859;43.020;25.096;2023-01-16T17:22:48;98216.41;;;5.19
76901;BMP280;65859;43.020;25.096;2023-01-16T17:25:16;98219.94;;;5.15
76901;BMP280;65859;43.020;25.096;2023-01-16T17:27:54;98221.03;;;5.14
76901;BMP280;65859;43.020;25.096;2023-01-16T17:30:23;98216.72;;;5.09